Time;durP1;ratioP1;P1;durP2;ratioP2;P2;SDS_P1;SDS_P2;PMS_P1;PMS_P2;Temp;Humidity;BMP_temperature;BMP_pressure;BME280_temperature;BME280_humidity;BME280_pressure;Samples;Min_cycle;Max_cycle;Signal;HPM_P1;HPM_P2
2022/01/24 00:01:57;;;;;;;21.48;11.88;;;3.40;99.90;;;;;;4955849;29;20070;-75
2022/01/24 00:04:23;;;;;;;25.70;13.75;;;3.30;99.90;;;;;;4955738;28;20026;-74
2022/01/24 00:06:49;;;;;;;24.48;13.63;;;3.20;99.90;;;;;;4955507;29;20126;-75
2022/01/24 00:09:15;;;;;;;24.48;12.57;;;3.30;99.90;;;;;;4955711;29;20027;-75
2022/01/24 00:11:57;;;;;;;20.55;11.02;;;3.40;99.90;;;;;;4938332;29;20039;-75
2022/01/24 00:27:21;;;;;;;18.90;11.02;;;3.40;99.90;;;;;;4955224;29;20038;-75
2022/01/24 00:29:47;;;;;;;22.40;11.35;;;3.60;99.90;;;;;;4938212;29;20023;-75
2022/01/24 00:32:13;;;;;;;22.92;10.82;;;3.70;99.90;;;;;;4955593;29;20541;-74
2022/01/24 00:34:39;;;;;;;22.13;11.02;;;3.50;99.90;;;;;;4938090;29;20490;-75
2022/01/24 00:37:05;;;;;;;20.08;11.32;;;3.40;99.90;;;;;;4955549;29;20032;-75
2022/01/24 00:39:31;;;;;;;23.73;11.48;;;3.50;99.90;;;;;;4955314;29;20027;-75
2022/01/24 00:47:22;;;;;;;21.05;11.40;;;3.40;99.90;;;;;;4955492;29;20119;-75
2022/01/24 00:55:00;;;;;;;19.50;11.07;;;3.40;99.90;;;;;;4955446;29;20030;-75
2022/01/24 00:57:26;;;;;;;20.52;11.75;;;3.30;99.90;;;;;;4955396;29;20027;-75
2022/01/24 00:59:52;;;;;;;19.17;10.73;;;3.30;99.90;;;;;;4937813;29;20104;-75
2022/01/24 01:02:19;;;;;;;20.85;10.07;;;3.40;99.90;;;;;;4937716;28;20087;-75
2022/01/24 01:07:26;;;;;;;22.05;11.50;;;3.50;99.90;;;;;;4954678;29;20410;-75
2022/01/24 01:20:48;;;;;;;30.52;11.88;;;3.40;99.90;;;;;;4954853;29;20103;-75
2022/01/24 01:23:13;;;;;;;24.10;12.20;;;3.50;99.90;;;;;;4955201;29;20508;-75
2022/01/24 01:25:41;;;;;;;23.17;12.27;;;3.50;99.90;;;;;;4954856;29;20031;-75
2022/01/24 01:28:07;;;;;;;26.45;11.90;;;3.40;99.90;;;;;;4955079;29;20020;-74
2022/01/24 01:30:41;;;;;;;22.73;11.95;;;3.30;99.90;;;;;;4954736;29;20038;-75
2022/01/24 01:33:36;;;;;;;22.98;11.68;;;3.30;99.90;;;;;;4955085;29;20019;-75
2022/01/24 01:57:02;;;;;;;25.00;12.63;;;3.50;99.90;;;;;;4958377;29;20119;-75
2022/01/24 01:59:27;;;;;;;25.42;13.45;;;3.60;99.90;;;;;;4958319;29;20102;-75
2022/01/24 02:01:53;;;;;;;26.50;13.40;;;3.60;99.90;;;;;;4958022;29;20468;-75
2022/01/24 02:04:19;;;;;;;30.60;15.52;;;3.50;99.90;;;;;;4957995;28;20116;-74
2022/01/24 02:06:45;;;;;;;27.70;13.15;;;3.60;99.90;;;;;;4957715;29;20062;-75
2022/01/24 02:09:13;;;;;;;27.52;13.32;;;3.30;99.90;;;;;;4957869;29;20470;-75
2022/01/24 02:11:39;;;;;;;31.33;14.60;;;3.50;99.90;;;;;;4940524;29;20094;-75
2022/01/24 02:14:11;;;;;;;28.60;17.30;;;3.40;99.90;;;;;;4957765;29;20027;-75
2022/01/24 02:16:47;;;;;;;26.00;13.05;;;3.50;99.90;;;;;;4958081;29;20058;-74
2022/01/24 02:24:55;;;;;;;25.67;13.65;;;3.60;99.90;;;;;;4957655;29;20070;-75
2022/01/24 02:27:21;;;;;;;30.35;14.98;;;3.60;99.90;;;;;;4957294;29;20059;-75
2022/01/24 02:30:13;;;;;;;25.92;14.13;;;3.70;99.90;;;;;;4957553;29;20100;-75
2022/01/24 02:32:40;;;;;;;33.90;19.88;;;3.70;99.90;;;;;;4957576;29;20393;-75
2022/01/24 02:35:07;;;;;;;29.00;14.45;;;3.70;99.90;;;;;;4957480;29;20027;-75
2022/01/24 02:37:33;;;;;;;28.02;15.13;;;3.60;99.90;;;;;;4957712;29;20023;-74
2022/01/24 02:40:06;;;;;;;27.45;13.55;;;3.70;99.90;;;;;;4957322;29;20035;-74
2022/01/24 02:48:25;;;;;;;28.80;13.93;;;3.60;99.90;;;;;;4957278;29;20058;-75
2022/01/24 02:53:22;;;;;;;28.77;14.18;;;3.60;99.90;;;;;;4957184;29;20034;-75
2022/01/24 02:55:48;;;;;;;29.95;14.45;;;3.60;99.90;;;;;;4957612;29;20027;-74
2022/01/24 02:58:16;;;;;;;24.08;13.43;;;3.50;99.90;;;;;;4956992;29;20474;-75
2022/01/24 03:00:43;;;;;;;30.05;14.10;;;3.50;99.90;;;;;;4956931;29;20035;-75
2022/01/24 03:03:08;;;;;;;28.85;14.13;;;3.50;99.90;;;;;;4956740;28;20031;-76
2022/01/24 03:05:34;;;;;;;23.30;13.55;;;3.60;99.90;;;;;;4956750;28;20043;-75
2022/01/24 03:08:00;;;;;;;27.55;13.68;;;3.60;99.90;;;;;;4956032;29;20051;-75
2022/01/24 03:10:37;;;;;;;25.77;14.02;;;3.50;99.90;;;;;;4956724;29;20089;-75
2022/01/24 03:15:49;;;;;;;30.63;14.52;;;3.40;99.90;;;;;;4956436;29;20097;-75
2022/01/24 03:18:15;;;;;;;30.80;14.18;;;3.30;99.90;;;;;;4939391;29;20122;-75
2022/01/24 03:20:43;;;;;;;30.38;14.70;;;3.30;99.90;;;;;;4957029;29;20398;-74
2022/01/24 03:23:10;;;;;;;30.45;15.20;;;3.30;99.90;;;;;;4956817;29;20482;-75
2022/01/24 03:25:35;;;;;;;27.38;13.80;;;3.20;99.90;;;;;;4956505;29;20110;-75
2022/01/24 03:28:03;;;;;;;28.98;13.05;;;3.30;99.90;;;;;;4956433;29;20512;-75
2022/01/24 03:30:29;;;;;;;32.33;15.18;;;3.30;99.90;;;;;;4956585;29;20379;-75
2022/01/24 03:32:56;;;;;;;26.60;14.00;;;3.40;99.90;;;;;;4956636;29;20038;-75
2022/01/24 03:35:21;;;;;;;27.80;14.55;;;3.40;99.90;;;;;;4956299;29;20090;-75
2022/01/24 03:37:47;;;;;;;29.98;14.77;;;3.40;99.90;;;;;;4956281;29;20485;-75
2022/01/24 03:40:13;;;;;;;24.15;14.05;;;3.30;99.90;;;;;;4956258;29;20059;-75
2022/01/24 03:42:39;;;;;;;30.08;14.48;;;3.30;99.90;;;;;;4956185;29;20031;-75
2022/01/24 03:45:08;;;;;;;31.20;14.55;;;3.40;99.90;;;;;;4956127;29;20091;-75
2022/01/24 03:50:16;;;;;;;31.55;15.18;;;3.50;99.90;;;;;;4956327;29;20079;-75
2022/01/24 03:52:45;;;;;;;29.17;15.02;;;3.60;99.90;;;;;;4956336;29;20494;-75
2022/01/24 03:55:12;;;;;;;36.08;15.40;;;3.50;99.90;;;;;;4955954;29;20050;-75
2022/01/24 03:57:39;;;;;;;31.40;14.32;;;3.60;99.90;;;;;;4938635;29;20405;-75
2022/01/24 04:00:08;;;;;;;24.67;13.85;;;3.60;99.90;;;;;;4955842;29;20023;-75
2022/01/24 04:02:34;;;;;;;27.58;13.52;;;3.80;99.90;;;;;;4956299;28;20386;-75
2022/01/24 04:05:00;;;;;;;28.85;14.65;;;3.80;99.90;;;;;;4955816;29;20031;-75
2022/01/24 04:07:25;;;;;;;28.30;13.63;;;3.90;99.90;;;;;;4955620;29;20051;-75
2022/01/24 04:09:51;;;;;;;29.20;14.07;;;4.00;99.90;;;;;;4955700;29;20027;-75
2022/01/24 04:12:17;;;;;;;27.20;13.63;;;4.00;99.90;;;;;;4956129;29;20473;-75
2022/01/24 04:22:20;;;;;;;30.02;14.05;;;4.10;99.90;;;;;;4955261;29;20042;-75
2022/01/24 04:24:47;;;;;;;28.08;13.65;;;4.20;99.90;;;;;;4955714;29;20558;-75
2022/01/24 04:27:14;;;;;;;23.52;12.35;;;4.10;99.90;;;;;;4955760;29;20101;-75
2022/01/24 04:29:41;;;;;;;28.33;13.60;;;4.10;99.90;;;;;;4955428;29;20038;-75
2022/01/24 04:32:07;;;;;;;23.92;12.40;;;4.20;99.90;;;;;;4955626;29;20023;-75
2022/01/24 04:34:33;;;;;;;23.95;12.23;;;4.20;99.90;;;;;;4955895;29;20071;-75
2022/01/24 04:36:59;;;;;;;28.38;13.00;;;4.20;99.90;;;;;;4955349;29;20031;-75
2022/01/24 04:39:25;;;;;;;25.42;13.05;;;4.20;99.90;;;;;;4955284;29;20023;-75
2022/01/24 04:41:54;;;;;;;26.60;13.10;;;4.20;99.90;;;;;;4955243;29;20104;-75
2022/01/24 04:52:55;;;;;;;27.80;13.77;;;4.10;99.90;;;;;;4955181;29;20042;-75
2022/01/24 04:55:21;;;;;;;27.50;12.38;;;4.20;99.90;;;;;;4937641;29;20027;-75
2022/01/24 04:57:46;;;;;;;30.38;13.20;;;4.20;99.90;;;;;;4955104;29;20042;-75
2022/01/24 05:00:13;;;;;;;26.00;13.30;;;4.10;99.90;;;;;;4955045;29;20415;-75
2022/01/24 05:02:38;;;;;;;24.88;13.05;;;4.10;99.90;;;;;;4955475;28;20032;-75
2022/01/24 05:05:06;;;;;;;26.48;13.30;;;4.10;99.90;;;;;;4955058;29;20031;-74
2022/01/24 05:07:32;;;;;;;27.48;12.93;;;4.10;99.90;;;;;;4954811;29;20055;-74
2022/01/24 05:25:54;;;;;;;25.73;13.20;;;3.90;99.90;;;;;;4955198;29;20055;-75
2022/01/24 05:28:20;;;;;;;28.42;13.57;;;3.90;99.90;;;;;;4955077;28;20106;-75
2022/01/24 05:30:45;;;;;;;21.92;11.68;;;3.80;99.90;;;;;;4957619;29;20031;-75
2022/01/24 05:33:11;;;;;;;28.20;13.52;;;3.80;99.90;;;;;;4958575;29;20394;-75
2022/01/24 05:35:37;;;;;;;27.90;13.30;;;3.80;99.90;;;;;;4958803;29;20027;-75
2022/01/24 05:38:03;;;;;;;27.80;15.35;;;3.70;99.90;;;;;;4958453;29;20035;-75
2022/01/24 05:40:29;;;;;;;31.98;14.10;;;3.60;99.90;;;;;;4958394;29;20023;-75
2022/01/24 05:42:55;;;;;;;31.00;14.73;;;3.60;99.90;;;;;;4958590;29;20102;-75
2022/01/24 05:45:21;;;;;;;32.08;17.38;;;3.60;99.90;;;;;;4958336;29;20482;-75
2022/01/24 05:47:46;;;;;;;31.02;15.38;;;3.60;99.90;;;;;;4958816;29;20062;-75
2022/01/24 05:50:12;;;;;;;26.00;12.52;;;3.60;99.90;;;;;;4958523;29;20441;-75
2022/01/24 05:52:38;;;;;;;24.15;13.25;;;3.60;99.90;;;;;;4958421;29;20031;-75
2022/01/24 05:55:05;;;;;;;27.17;13.23;;;3.60;99.90;;;;;;4958119;29;20023;-74
2022/01/24 05:57:30;;;;;;;23.02;12.00;;;3.50;99.90;;;;;;4958667;29;20485;-75
2022/01/24 05:59:56;;;;;;;24.65;13.57;;;3.40;99.90;;;;;;4958085;29;20037;-75
2022/01/24 06:02:22;;;;;;;26.63;17.77;;;3.40;99.90;;;;;;4940722;28;20109;-75
2022/01/24 06:04:48;;;;;;;29.88;14.10;;;3.40;99.90;;;;;;4958545;29;20106;-75
2022/01/24 06:07:13;;;;;;;25.52;12.57;;;3.30;99.90;;;;;;4940530;29;20552;-75
2022/01/24 06:09:39;;;;;;;24.35;12.85;;;3.50;99.90;;;;;;4957938;29;20032;-75
2022/01/24 06:12:05;;;;;;;22.65;11.75;;;3.40;99.90;;;;;;4957815;29;20478;-75
2022/01/24 06:14:31;;;;;;;27.95;13.27;;;3.50;99.90;;;;;;4958100;29;20463;-75
2022/01/24 06:16:57;;;;;;;27.27;13.95;;;3.50;99.90;;;;;;4957788;29;20026;-75
2022/01/24 06:19:23;;;;;;;21.80;12.15;;;3.50;99.90;;;;;;4957520;29;20034;-75
2022/01/24 06:21:48;;;;;;;28.42;12.88;;;3.40;99.90;;;;;;4957683;29;20058;-75
2022/01/24 06:24:14;;;;;;;31.15;14.57;;;3.40;99.90;;;;;;4957682;29;20114;-74
2022/01/24 06:26:43;;;;;;;27.67;12.38;;;3.20;99.90;;;;;;4957691;29;20075;-75
2022/01/24 06:29:09;;;;;;;24.92;12.73;;;3.20;99.90;;;;;;4957620;29;20114;-76
2022/01/24 06:31:35;;;;;;;26.67;12.52;;;3.20;99.90;;;;;;4957430;29;20110;-75
2022/01/24 06:34:01;;;;;;;30.50;13.00;;;3.20;99.90;;;;;;4957795;29;20128;-75
2022/01/24 06:36:27;;;;;;;27.48;12.73;;;3.20;99.90;;;;;;4957466;29;20035;-75
2022/01/24 06:38:52;;;;;;;27.45;13.48;;;3.30;99.90;;;;;;4957448;29;20371;-74
2022/01/24 06:41:24;;;;;;;29.77;14.23;;;3.20;99.90;;;;;;4957634;28;20031;-75
2022/01/24 06:43:49;;;;;;;24.02;13.00;;;3.20;99.90;;;;;;4957697;29;20059;-75
2022/01/24 06:46:15;;;;;;;39.25;14.38;;;3.20;99.90;;;;;;4957304;29;20054;-75
2022/01/24 06:48:40;;;;;;;28.13;13.68;;;3.20;99.90;;;;;;4957210;29;20392;-75
2022/01/24 06:51:10;;;;;;;22.83;12.65;;;3.10;99.90;;;;;;4957377;29;20086;-74
2022/01/24 06:53:37;;;;;;;25.60;13.47;;;3.10;99.90;;;;;;4957172;29;20026;-75
2022/01/24 06:56:03;;;;;;;26.88;12.70;;;3.00;99.90;;;;;;4957078;29;20023;-75
2022/01/24 06:58:28;;;;;;;25.17;12.10;;;3.10;99.90;;;;;;4957044;29;20171;-75
2022/01/24 07:00:54;;;;;;;27.70;12.75;;;3.00;99.90;;;;;;4957035;29;20505;-75
2022/01/24 07:03:20;;;;;;;25.67;12.52;;;3.10;99.90;;;;;;4956900;28;20135;-75
2022/01/24 07:05:45;;;;;;;24.33;12.68;;;3.10;99.90;;;;;;4956888;29;20031;-75
2022/01/24 07:08:11;;;;;;;24.30;13.43;;;3.10;99.90;;;;;;4956046;29;20073;-75
2022/01/24 07:10:36;;;;;;;23.00;11.38;;;3.10;99.90;;;;;;4956790;29;20034;-75
2022/01/24 07:13:02;;;;;;;21.60;12.27;;;3.10;99.90;;;;;;4957311;29;20027;-75
2022/01/24 07:15:33;;;;;;;22.08;11.25;;;3.10;99.90;;;;;;4957014;29;20030;-74
2022/01/24 07:20:27;;;;;;;22.63;12.32;;;3.10;99.90;;;;;;4956909;29;20062;-75
2022/01/24 07:22:53;;;;;;;22.73;12.07;;;3.00;99.90;;;;;;4956670;29;20055;-75
2022/01/24 07:25:21;;;;;;;27.48;13.77;;;3.00;99.90;;;;;;4956548;29;20102;-75
2022/01/24 07:27:47;;;;;;;27.92;14.23;;;3.00;99.90;;;;;;4956479;29;20111;-75
2022/01/24 07:30:12;;;;;;;24.42;12.43;;;2.90;99.90;;;;;;4956483;29;20110;-75
2022/01/24 07:32:38;;;;;;;24.58;12.43;;;2.90;99.90;;;;;;4956342;29;20027;-75
2022/01/24 07:35:04;;;;;;;21.65;12.40;;;2.70;99.90;;;;;;4956390;29;20035;-76
2022/01/24 07:37:29;;;;;;;26.00;14.25;;;2.80;99.90;;;;;;4956358;29;20027;-75
2022/01/24 07:39:56;;;;;;;22.48;12.98;;;2.90;99.90;;;;;;4956288;29;20042;-75
2022/01/24 07:42:39;;;;;;;27.67;13.20;;;2.90;99.90;;;;;;4956243;29;20114;-75
2022/01/24 07:45:05;;;;;;;27.90;14.13;;;3.00;99.90;;;;;;4938673;29;20031;-74
2022/01/24 07:47:31;;;;;;;30.15;15.05;;;2.90;99.90;;;;;;4956163;29;20035;-76
2022/01/24 07:49:57;;;;;;;26.48;14.20;;;2.90;99.90;;;;;;4956119;29;20094;-75
2022/01/24 07:52:23;;;;;;;30.00;15.55;;;2.90;99.90;;;;;;4955371;28;20054;-75
2022/01/24 07:54:48;;;;;;;33.17;18.83;;;2.80;99.90;;;;;;4956275;29;20019;-75
2022/01/24 07:57:14;;;;;;;95.45;47.30;;;2.70;99.90;;;;;;4955777;29;20082;-78
2022/01/24 07:59:40;;;;;;;31.63;15.13;;;2.60;99.90;;;;;;4971485;28;20102;-78
2022/01/24 08:02:05;;;;;;;22.10;12.68;;;2.60;99.90;;;;;;4974373;28;20034;-77
2022/01/24 08:04:31;;;;;;;28.08;13.15;;;2.60;99.90;;;;;;4975080;28;20168;-76
2022/01/24 08:06:56;;;;;;;23.83;12.80;;;2.60;99.90;;;;;;4974703;28;20053;-77
2022/01/24 08:09:22;;;;;;;29.38;13.25;;;2.70;99.90;;;;;;4957227;28;20113;-77
2022/01/24 08:11:48;;;;;;;24.48;12.75;;;2.70;99.90;;;;;;4975207;28;20041;-77
2022/01/24 08:14:13;;;;;;;31.02;14.05;;;2.70;99.90;;;;;;4974560;28;20058;-78
2022/01/24 08:16:40;;;;;;;25.13;14.27;;;2.60;99.90;;;;;;4974457;28;20113;-76
2022/01/24 08:19:05;;;;;;;30.90;13.73;;;2.80;99.90;;;;;;4958074;28;20023;-75
2022/01/24 08:21:31;;;;;;;26.25;15.45;;;2.90;99.90;;;;;;4957551;28;20037;-74
2022/01/24 08:23:57;;;;;;;24.73;13.43;;;2.90;99.90;;;;;;4975261;28;20034;-77
2022/01/24 08:26:23;;;;;;;27.13;13.30;;;2.90;99.90;;;;;;4974900;28;20033;-75
2022/01/24 08:28:49;;;;;;;21.70;12.55;;;2.70;99.90;;;;;;4974477;28;20038;-77
2022/01/24 08:31:15;;;;;;;27.88;14.27;;;2.80;99.90;;;;;;4974838;28;20035;-77
2022/01/24 08:33:40;;;;;;;23.20;11.82;;;2.90;99.90;;;;;;4974425;28;20019;-76
2022/01/24 08:36:06;;;;;;;32.15;17.10;;;2.90;99.90;;;;;;4974613;28;20558;-73
2022/01/24 08:38:36;;;;;;;45.53;18.60;;;2.90;99.90;;;;;;4974795;28;20030;-76
2022/01/24 08:41:10;;;;;;;40.88;19.15;;;2.80;99.90;;;;;;4974352;28;20023;-78
2022/01/24 08:43:39;;;;;;;34.22;19.38;;;2.80;99.90;;;;;;4974254;28;20441;-77
2022/01/24 08:46:06;;;;;;;36.90;20.63;;;2.70;99.90;;;;;;4974810;28;20031;-77
2022/01/24 08:48:32;;;;;;;36.47;19.08;;;2.80;99.90;;;;;;4973543;28;20132;-77
2022/01/24 08:50:59;;;;;;;32.70;16.23;;;2.80;99.90;;;;;;4972977;28;20122;-76
2022/01/24 08:53:26;;;;;;;40.85;21.33;;;2.90;99.90;;;;;;4974178;28;20032;-77
2022/01/24 08:55:51;;;;;;;36.30;18.70;;;2.90;99.90;;;;;;4974398;28;20105;-76
2022/01/24 08:58:18;;;;;;;35.85;19.08;;;2.90;99.90;;;;;;4974188;28;20458;-76
2022/01/24 09:00:45;;;;;;;35.88;19.23;;;2.90;99.90;;;;;;4974162;28;20023;-76
2022/01/24 09:03:14;;;;;;;36.28;19.05;;;3.00;99.90;;;;;;4974962;28;20030;-76
2022/01/24 09:05:41;;;;;;;41.88;22.33;;;2.90;99.90;;;;;;4978353;28;20031;-77
2022/01/24 09:08:07;;;;;;;37.40;22.67;;;3.10;99.90;;;;;;4977976;28;20501;-78
2022/01/24 09:10:34;;;;;;;38.53;19.80;;;3.20;99.90;;;;;;4961054;28;20497;-77
2022/01/24 09:13:00;;;;;;;34.95;19.63;;;3.20;99.90;;;;;;4979032;28;20042;-78
2022/01/24 09:15:26;;;;;;;37.28;19.73;;;3.20;99.90;;;;;;4978666;28;20493;-76
2022/01/24 09:17:52;;;;;;;36.58;20.13;;;3.20;99.90;;;;;;4978279;28;20037;-76
2022/01/24 09:20:18;;;;;;;37.17;20.98;;;3.30;99.90;;;;;;4978242;28;20449;-77
2022/01/24 09:22:45;;;;;;;37.63;21.73;;;3.30;99.90;;;;;;4978371;28;20035;-77
2022/01/24 09:25:12;;;;;;;43.30;21.88;;;3.40;99.90;;;;;;4977922;28;20031;-78
2022/01/24 09:27:39;;;;;;;46.05;22.40;;;3.50;99.90;;;;;;4978103;28;20034;-76
2022/01/24 09:30:07;;;;;;;40.42;20.65;;;3.60;99.90;;;;;;4977761;28;20110;-77
2022/01/24 09:32:33;;;;;;;39.05;20.38;;;3.90;99.90;;;;;;4978061;28;20429;-79
2022/01/24 09:34:59;;;;;;;40.28;20.83;;;4.10;99.90;;;;;;4977998;28;20027;-74
2022/01/24 09:37:25;;;;;;;36.42;19.25;;;4.30;99.90;;;;;;4978247;28;20081;-78
2022/01/24 09:39:51;;;;;;;39.33;21.20;;;4.50;99.90;;;;;;4976841;28;20391;-76
2022/01/24 09:42:17;;;;;;;37.15;19.10;;;4.50;99.90;;;;;;4976743;28;20118;-77
2022/01/24 09:44:44;;;;;;;40.60;21.23;;;4.70;99.90;;;;;;4977033;28;20023;-76
2022/01/24 09:47:14;;;;;;;40.90;20.55;;;4.80;99.90;;;;;;4977251;28;20114;-79
2022/01/24 09:49:40;;;;;;;36.75;20.33;;;5.00;99.90;;;;;;4977113;28;20029;-76
2022/01/24 09:52:05;;;;;;;34.85;19.15;;;5.30;99.90;;;;;;4976987;28;20035;-75
2022/01/24 09:54:31;;;;;;;36.08;18.55;;;5.40;99.90;;;;;;4976804;28;20030;-77
2022/01/24 09:56:57;;;;;;;33.25;18.52;;;5.40;99.90;;;;;;4960062;28;20389;-78
2022/01/24 09:59:22;;;;;;;40.90;18.40;;;5.40;99.90;;;;;;4976661;28;20069;-77
2022/01/24 10:01:48;;;;;;;35.92;18.15;;;5.50;99.90;;;;;;4977408;28;20027;-78
2022/01/24 10:04:18;;;;;;;31.83;18.48;;;5.60;99.90;;;;;;4977128;28;20019;-76
2022/01/24 10:07:07;;;;;;;37.92;19.80;;;5.70;99.90;;;;;;4959354;28;21527;-79
2022/01/24 10:09:51;;;;;;;37.33;18.25;;;5.50;99.90;;;;;;4976801;28;20031;-80
2022/01/24 10:16:24;;;;;;;35.22;18.83;;;5.50;99.90;;;;;;4977450;28;20385;-77
2022/01/24 10:17:53;;;;;;;32.22;18.10;;;5.50;99.90;;;;;;4977427;28;20085;-78
2022/01/24 10:20:30;;;;;;;36.17;18.48;;;5.50;99.90;;;;;;4958985;28;20026;-77
2022/01/24 10:23:17;;;;;;;35.65;18.63;;;5.50;99.90;;;;;;4977206;28;20031;-75
2022/01/24 10:25:54;;;;;;;35.53;18.98;;;5.50;99.90;;;;;;4976857;28;20126;-75
2022/01/24 10:28:22;;;;;;;31.40;17.67;;;5.40;99.90;;;;;;4977322;28;20031;-76
2022/01/24 10:31:02;;;;;;;33.03;19.05;;;5.30;99.90;;;;;;4975098;28;20077;-76
2022/01/24 10:33:27;;;;;;;33.08;17.95;;;5.50;99.90;;;;;;4974480;28;20031;-77
2022/01/24 10:35:53;;;;;;;30.70;16.45;;;5.60;99.90;;;;;;4975755;28;20459;-76
2022/01/24 10:38:44;;;;;;;35.08;18.27;;;5.60;99.90;;;;;;4976195;28;20517;-75
2022/01/24 10:43:39;;;;;;;28.88;16.17;;;5.60;99.90;;;;;;4976584;28;19906;-76
2022/01/24 10:46:06;;;;;;;33.42;17.30;;;5.60;99.90;;;;;;4976559;28;20039;-78
2022/01/24 10:48:34;;;;;;;33.60;16.63;;;5.60;99.90;;;;;;4958369;28;20085;-78
2022/01/24 10:51:06;;;;;;;34.10;18.05;;;5.60;99.90;;;;;;4976764;28;20035;-76
2022/01/24 10:53:38;;;;;;;29.25;16.77;;;5.20;99.90;;;;;;4976283;28;20019;-77
2022/01/24 10:56:34;;;;;;;32.00;16.67;;;5.20;99.90;;;;;;4976946;28;20034;-80
2022/01/24 10:59:11;;;;;;;34.42;17.00;;;5.30;99.90;;;;;;4976213;28;20019;-77
2022/01/24 11:01:39;;;;;;;30.30;16.73;;;5.20;99.90;;;;;;4976026;28;20061;-77
2022/01/24 11:04:10;;;;;;;34.17;16.63;;;5.30;99.90;;;;;;4975591;28;20031;-78
2022/01/24 11:06:42;;;;;;;31.73;16.73;;;5.30;99.90;;;;;;4958558;28;20120;-77
2022/01/24 11:09:28;;;;;;;34.42;17.80;;;5.40;99.90;;;;;;4975878;28;20022;-78
2022/01/24 11:12:00;;;;;;;35.35;18.00;;;5.50;99.90;;;;;;4959262;28;20569;-78
2022/01/24 11:14:27;;;;;;;29.60;16.58;;;5.40;99.90;;;;;;4975568;28;20026;-79
2022/01/24 11:16:56;;;;;;;32.05;17.45;;;5.30;99.90;;;;;;4977097;28;20374;-78
2022/01/24 11:19:31;;;;;;;33.00;18.45;;;5.30;99.90;;;;;;4966640;28;20023;-78
2022/01/24 11:21:59;;;;;;;31.90;17.50;;;5.40;99.90;;;;;;4995750;28;20031;-79
2022/01/24 11:24:38;;;;;;;33.88;18.45;;;5.40;99.90;;;;;;4988276;28;20374;-78
2022/01/24 11:27:05;;;;;;;29.95;17.20;;;5.40;99.90;;;;;;4961916;28;20115;-78
2022/01/24 11:29:33;;;;;;;33.80;18.00;;;5.10;99.90;;;;;;4975766;28;20026;-79
2022/01/24 11:32:20;;;;;;;31.83;18.70;;;5.20;99.90;;;;;;4958255;28;20030;-75
2022/01/24 11:34:51;;;;;;;32.58;18.35;;;5.30;99.90;;;;;;4956388;29;20055;-75
2022/01/24 11:37:39;;;;;;;37.85;19.95;;;5.20;99.90;;;;;;4956177;29;20027;-75
2022/01/24 11:40:17;;;;;;;34.42;18.92;;;5.20;99.90;;;;;;4956293;29;20094;-76
2022/01/24 11:42:47;;;;;;;35.33;18.13;;;5.10;99.90;;;;;;4956868;29;20363;-75
2022/01/24 11:45:18;;;;;;;33.93;17.80;;;5.20;99.90;;;;;;4939028;29;20028;-76
2022/01/24 11:47:46;;;;;;;34.40;18.58;;;5.10;99.90;;;;;;4956259;29;20078;-75
2022/01/24 11:50:23;;;;;;;34.40;18.27;;;5.10;99.90;;;;;;4956137;29;20027;-76
2022/01/24 11:52:54;;;;;;;33.30;17.30;;;5.10;99.90;;;;;;4938801;29;20031;-77
2022/01/24 11:55:31;;;;;;;;;;;5.20;99.90;;;;;;4957041;29;20055;-75
2022/01/24 11:58:03;;;;;;;25.65;13.98;;;5.20;99.90;;;;;;4956055;29;19906;-75
2022/01/24 12:00:38;;;;;;;33.72;17.65;;;5.30;99.90;;;;;;4955958;29;20486;-75
2022/01/24 12:03:16;;;;;;;30.08;15.88;;;5.40;99.90;;;;;;4955892;28;20378;-76
2022/01/24 12:05:45;;;;;;;32.08;17.45;;;5.30;99.90;;;;;;4955919;29;20031;-75
2022/01/24 12:08:12;;;;;;;36.28;18.50;;;5.40;99.90;;;;;;4938152;29;20055;-76
2022/01/24 12:10:44;;;;;;;34.10;17.92;;;5.50;99.90;;;;;;4955648;29;20023;-77
2022/01/24 12:13:21;;;;;;;30.60;17.63;;;5.50;99.90;;;;;;4938279;29;20446;-75
2022/01/24 12:15:49;;;;;;;31.58;16.92;;;5.60;99.90;;;;;;4955766;29;20027;-76
2022/01/24 12:18:42;;;;;;;33.33;16.40;;;5.60;99.90;;;;;;4955923;29;20405;-75
2022/01/24 12:21:09;;;;;;;30.02;16.35;;;5.60;99.90;;;;;;4938098;29;20405;-76
2022/01/24 12:24:21;;;;;;;28.02;15.65;;;5.60;99.90;;;;;;4955600;29;20100;-75
2022/01/24 12:26:49;;;;;;;34.65;16.20;;;5.60;99.90;;;;;;4953375;29;20405;-76
2022/01/24 12:29:21;;;;;;;28.27;15.80;;;5.60;99.90;;;;;;4955483;29;20165;-76
2022/01/24 12:31:50;;;;;;;29.73;17.10;;;5.70;99.90;;;;;;4955690;29;20027;-76
2022/01/24 12:34:26;;;;;;;30.55;16.48;;;5.80;99.90;;;;;;4938128;29;20478;-75
2022/01/24 12:37:00;;;;;;;29.90;16.45;;;5.80;99.90;;;;;;4955657;29;20019;-74
2022/01/24 12:39:45;;;;;;;28.33;14.70;;;5.90;99.90;;;;;;4955106;28;20034;-75
2022/01/24 12:42:19;;;;;;;34.40;16.77;;;6.00;99.90;;;;;;4955634;29;20023;-76
2022/01/24 12:47:26;;;;;;;31.42;15.85;;;6.10;99.90;;;;;;4955154;29;20027;-76
2022/01/24 12:49:52;;;;;;;32.08;16.70;;;6.20;99.90;;;;;;4955206;29;20031;-75
2022/01/24 12:52:24;;;;;;;31.98;16.73;;;6.20;99.90;;;;;;4954939;29;20031;-75
2022/01/24 12:54:57;;;;;;;29.38;16.55;;;6.20;99.90;;;;;;4937724;29;20103;-76
2022/01/24 12:57:29;;;;;;;30.50;17.05;;;6.20;99.90;;;;;;4955167;29;20102;-75
2022/01/24 13:00:04;;;;;;;28.73;17.08;;;6.20;99.90;;;;;;4955172;29;20079;-75
2022/01/24 13:02:34;;;;;;;28.63;16.45;;;6.10;99.90;;;;;;4955604;28;20100;-75
2022/01/24 13:05:10;;;;;;;29.42;16.95;;;6.20;99.90;;;;;;4955609;29;20046;-75
2022/01/24 13:07:37;;;;;;;26.80;16.13;;;6.30;99.90;;;;;;4955009;29;20486;-74
2022/01/24 13:10:09;;;;;;;30.95;16.77;;;6.30;99.90;;;;;;4955288;29;20034;-75
2022/01/24 13:12:36;;;;;;;30.27;17.58;;;6.30;99.90;;;;;;4955241;29;20035;-76
2022/01/24 13:15:06;;;;;;;25.67;15.48;;;6.30;99.90;;;;;;4959342;28;20062;-75
2022/01/24 13:23:23;;;;;;;29.95;16.70;;;6.40;99.90;;;;;;4902781;29;20653;-77
2022/01/24 13:25:49;;;;;;;31.17;17.55;;;6.40;99.90;;;;;;4954892;29;20038;-78
2022/01/24 13:28:19;;;;;;;30.30;16.67;;;6.40;99.90;;;;;;4954828;29;20027;-75
2022/01/24 13:31:01;;;;;;;31.73;16.83;;;6.40;99.90;;;;;;4963998;28;20019;-76
2022/01/24 13:33:29;;;;;;;30.00;16.83;;;6.40;99.90;;;;;;4974422;28;20022;-78
2022/01/24 13:36:00;;;;;;;33.10;17.00;;;6.40;99.90;;;;;;4973620;28;20035;-76
2022/01/24 13:38:47;;;;;;;30.95;16.60;;;6.50;99.90;;;;;;4973601;28;20027;-76
2022/01/24 13:41:23;;;;;;;31.38;17.48;;;6.50;99.90;;;;;;4974578;28;20078;-76
2022/01/24 13:44:01;;;;;;;30.20;17.27;;;6.50;99.90;;;;;;4973671;28;20034;-76
2022/01/24 13:46:32;;;;;;;32.20;16.25;;;6.60;99.90;;;;;;4973721;28;20058;-78
2022/01/24 13:49:02;;;;;;;27.73;16.52;;;6.70;99.90;;;;;;4974535;28;20027;-76
2022/01/24 13:51:35;;;;;;;31.30;16.52;;;6.70;99.90;;;;;;4976052;28;20035;-75
2022/01/24 13:54:03;;;;;;;25.70;15.35;;;6.80;99.90;;;;;;4977912;28;20023;-72
2022/01/24 13:56:44;;;;;;;30.48;16.77;;;6.90;99.90;;;;;;4960381;28;20035;-75
2022/01/24 13:59:26;;;;;;;25.63;15.70;;;6.90;99.90;;;;;;4977797;28;20037;-75
2022/01/24 14:02:06;;;;;;;25.42;15.25;;;6.90;99.90;;;;;;4977102;28;20027;-78
2022/01/24 14:04:48;;;;;;;27.10;16.00;;;7.00;99.90;;;;;;4977950;28;20023;-76
2022/01/24 14:07:22;;;;;;;30.27;16.88;;;7.00;99.90;;;;;;4977350;28;20050;-78
2022/01/24 14:09:57;;;;;;;25.30;15.02;;;6.90;99.90;;;;;;4977073;28;20027;-77
2022/01/24 14:12:29;;;;;;;27.65;15.50;;;6.90;99.90;;;;;;4976960;28;20113;-80
2022/01/24 14:15:07;;;;;;;28.20;15.30;;;6.90;99.90;;;;;;4977584;28;20533;-80
2022/01/24 14:17:44;;;;;;;27.23;15.02;;;7.00;99.90;;;;;;4977230;28;20445;-80
2022/01/24 14:20:15;;;;;;;25.50;15.80;;;7.00;99.90;;;;;;4976870;28;20070;-76
2022/01/24 14:22:40;;;;;;;25.60;15.23;;;7.10;99.90;;;;;;4977079;28;20109;-78
2022/01/24 14:25:14;;;;;;;26.40;15.77;;;7.10;99.90;;;;;;4959769;28;20109;-79
2022/01/24 14:27:51;;;;;;;28.60;15.75;;;7.20;99.90;;;;;;4977572;28;20022;-80
2022/01/24 14:30:38;;;;;;;27.38;15.65;;;7.20;99.90;;;;;;4976537;28;20053;-81
2022/01/24 14:33:28;;;;;;;27.60;14.60;;;7.20;99.90;;;;;;4976733;28;20409;-78
2022/01/24 14:35:58;;;;;;;;;;;7.20;99.90;;;;;;4977893;28;20078;-78
2022/01/24 14:38:40;;;;;;;29.10;14.95;;;7.10;99.90;;;;;;4976937;28;19906;-76
2022/01/24 14:41:15;;;;;;;24.98;14.63;;;7.20;99.90;;;;;;4967234;28;20027;-79
2022/01/24 14:46:34;;;;;;;24.10;14.18;;;7.20;99.90;;;;;;4976964;28;20508;-80
2022/01/24 14:49:02;;;;;;;25.50;14.23;;;7.20;99.90;;;;;;4959124;28;20058;-78
2022/01/24 14:51:31;;;;;;;27.08;14.93;;;7.30;99.90;;;;;;4976609;28;20019;-79
2022/01/24 14:54:01;;;;;;;26.02;15.32;;;7.20;99.90;;;;;;4976750;28;20465;-77
2022/01/24 14:56:27;;;;;;;27.60;15.20;;;7.20;99.90;;;;;;4975710;28;21823;-73
2022/01/24 14:58:54;;;;;;;27.55;14.95;;;7.30;99.90;;;;;;4976347;28;20266;-73